Time;durP1;ratioP1;P1;durP2;ratioP2;P2;SDS_P1;SDS_P2;PMS_P1;PMS_P2;Temp;Humidity;BMP_temperature;BMP_pressure;BME280_temperature;BME280_humidity;BME280_pressure;Samples;Min_cycle;Max_cycle;Signal;HPM_P1;HPM_P2
2021/05/24 00:01:57;;;;;;;0.90;0.70;;;;;;;5.75;100.00;98178.44;5035584;28;20065;-86
2021/05/24 00:05:01;;;;;;;6.03;1.58;;;;;;;5.66;100.00;98181.34;5021670;28;20041;-87
2021/05/24 00:08:04;;;;;;;1.98;0.90;;;;;;;5.66;100.00;98186.09;5023970;28;20543;-86
2021/05/24 00:11:08;;;;;;;1.63;1.35;;;;;;;5.59;100.00;98176.22;5023887;28;20066;-86
2021/05/24 00:14:13;;;;;;;0.57;0.57;;;;;;;5.57;100.00;98177.94;5036789;28;20057;-86
2021/05/24 00:17:16;;;;;;;0.73;0.73;;;;;;;5.47;100.00;98180.09;5023216;28;20508;-86
2021/05/24 00:20:23;;;;;;;0.52;0.52;;;;;;;5.38;100.00;98171.94;5022372;28;20052;-87
2021/05/24 00:23:28;;;;;;;1.00;1.00;;;;;;;5.32;100.00;98176.63;5022155;28;20049;-87
2021/05/24 00:26:31;;;;;;;3.95;0.85;;;;;;;5.27;100.00;98182.81;5021037;28;20044;-87
2021/05/24 00:29:35;;;;;;;1.40;1.02;;;;;;;5.25;100.00;98182.53;5021682;28;20064;-87
2021/05/24 00:32:39;;;;;;;13.55;1.48;;;;;;;5.28;100.00;98173.31;5021311;28;20053;-86
2021/05/24 00:35:42;;;;;;;2.17;0.70;;;;;;;5.23;100.00;98173.97;5021451;28;20048;-87
2021/05/24 00:38:45;;;;;;;0.77;0.77;;;;;;;5.14;100.00;98179.59;5021765;28;20049;-87
2021/05/24 00:41:50;;;;;;;3.13;0.73;;;;;;;5.05;100.00;98176.97;5021683;28;20497;-87
2021/05/24 00:44:54;;;;;;;1.15;1.05;;;;;;;5.03;100.00;98179.44;5021201;28;20040;-86
2021/05/24 00:47:57;;;;;;;1.27;1.27;;;;;;;4.97;100.00;98186.88;5020761;28;20381;-87
2021/05/24 00:51:01;;;;;;;2.15;1.60;;;;;;;4.87;100.00;98174.44;5019384;28;20056;-87
2021/05/24 00:54:05;;;;;;;1.02;1.02;;;;;;;4.83;100.00;98168.38;5024521;28;20052;-86
2021/05/24 00:57:09;;;;;;;0.77;0.68;;;;;;;4.84;100.00;98167.09;5031883;28;20056;-86
2021/05/24 01:00:21;;;;;;;0.60;0.60;;;;;;;4.98;100.00;98169.09;5023954;28;20040;-87
2021/05/24 01:03:25;;;;;;;;;;;;;;;5.05;100.00;98168.69;5034986;28;20041;-85
2021/05/24 01:06:28;;;;;;;0.63;0.63;;;;;;;5.09;100.00;98169.25;5035609;28;19921;-82
2021/05/24 01:09:34;;;;;;;0.90;0.90;;;;;;;5.09;100.00;98172.03;5035477;28;20037;-87
2021/05/24 01:12:37;;;;;;;2.85;1.55;;;;;;;5.07;100.00;98168.97;5024364;28;20057;-88
2021/05/24 01:15:42;;;;;;;11.90;1.40;;;;;;;5.01;100.00;98170.88;5021400;28;20044;-88
2021/05/24 01:18:46;;;;;;;1.65;1.55;;;;;;;4.95;100.00;98170.03;5022144;28;20044;-83
2021/05/24 01:21:49;;;;;;;1.67;1.58;;;;;;;4.85;100.00;98168.66;5034747;28;20036;-84
2021/05/24 01:24:53;;;;;;;1.95;1.85;;;;;;;4.76;100.00;98171.50;5023045;28;20390;-83
2021/05/24 01:27:57;;;;;;;1.95;1.30;;;;;;;4.65;100.00;98179.59;5036140;28;20049;-84
2021/05/24 01:31:02;;;;;;;0.93;0.93;;;;;;;4.54;100.00;98167.16;5036151;28;20060;-84
2021/05/24 01:34:06;;;;;;;0.90;0.90;;;;;;;4.46;100.00;98170.75;5035817;28;20581;-85
2021/05/24 01:37:09;;;;;;;0.80;0.80;;;;;;;4.37;100.00;98163.34;5036600;28;20040;-83
2021/05/24 01:40:14;;;;;;;2.90;1.98;;;;;;;4.32;100.00;98168.75;5029105;28;20507;-83
2021/05/24 01:43:19;;;;;;;0.73;0.73;;;;;;;4.32;100.00;98172.28;5037730;28;20040;-83
2021/05/24 01:46:23;;;;;;;1.95;1.15;;;;;;;4.35;100.00;98171.31;5037348;28;20048;-83
2021/05/24 01:49:30;;;;;;;2.60;2.00;;;;;;;4.28;100.00;98168.94;5039592;28;20049;-82
2021/05/24 01:52:34;;;;;;;5.57;1.30;;;;;;;4.22;100.00;98168.06;5025860;28;20052;-83
2021/05/24 01:55:39;;;;;;;2.35;1.33;;;;;;;4.17;100.00;98166.00;5035271;28;20072;-83
2021/05/24 01:58:43;;;;;;;1.13;1.13;;;;;;;4.13;100.00;98167.41;5025491;28;20040;-83
2021/05/24 02:01:46;;;;;;;1.63;1.20;;;;;;;4.13;100.00;98165.41;5024780;28;20044;-83
2021/05/24 02:04:50;;;;;;;2.28;2.03;;;;;;;4.15;100.00;98151.94;5036980;28;20064;-83
2021/05/24 02:07:55;;;;;;;10.73;1.65;;;;;;;4.14;100.00;98152.38;5036221;28;20052;-84
2021/05/24 02:11:01;;;;;;;1.55;1.05;;;;;;;4.13;100.00;98154.41;5034628;28;20048;-83
2021/05/24 02:14:05;;;;;;;1.85;1.35;;;;;;;4.15;100.00;98153.91;5023098;28;20045;-84
2021/05/24 02:17:09;;;;;;;1.45;1.35;;;;;;;4.12;100.00;98158.38;5035378;28;20048;-84
2021/05/24 02:20:18;;;;;;;1.23;1.17;;;;;;;4.14;100.00;98161.41;5025277;28;20049;-85
2021/05/24 02:23:22;;;;;;;4.45;2.15;;;;;;;4.13;100.00;98159.16;5023643;28;20048;-85
2021/05/24 02:26:25;;;;;;;0.85;0.75;;;;;;;4.15;100.00;98162.94;5037792;28;20040;-85
2021/05/24 02:29:29;;;;;;;3.08;1.15;;;;;;;4.12;100.00;98180.41;5027073;28;20082;-86
2021/05/24 02:32:34;;;;;;;0.63;0.63;;;;;;;4.15;100.00;98171.22;5024610;28;20044;-85
2021/05/24 02:35:38;;;;;;;2.45;1.10;;;;;;;4.12;100.00;98174.91;5027794;28;20504;-84
2021/05/24 02:38:48;;;;;;;2.50;1.35;;;;;;;4.02;100.00;98181.72;5023554;28;20052;-86
2021/05/24 02:41:52;;;;;;;1.80;1.67;;;;;;;4.00;100.00;98189.72;5022594;28;20417;-86
2021/05/24 02:44:55;;;;;;;1.15;1.15;;;;;;;3.94;100.00;98183.34;5034638;28;20052;-86
2021/05/24 02:48:00;;;;;;;1.20;1.10;;;;;;;3.94;100.00;98174.31;5033896;28;20382;-86
2021/05/24 02:51:04;;;;;;;11.57;2.53;;;;;;;4.03;100.00;98166.72;5032770;28;20060;-85
2021/05/24 02:54:07;;;;;;;2.63;1.27;;;;;;;4.05;100.00;98169.75;5018639;28;20052;-84
2021/05/24 02:57:10;;;;;;;1.63;1.52;;;;;;;4.00;100.00;98167.69;5015154;28;20041;-86
2021/05/24 03:00:15;;;;;;;6.47;1.83;;;;;;;3.96;100.00;98172.63;5016797;28;20048;-86
2021/05/24 03:03:23;;;;;;;5.00;2.65;;;;;;;3.91;100.00;98170.50;5017625;28;20044;-84
2021/05/24 03:06:27;;;;;;;2.10;1.98;;;;;;;3.89;100.00;98172.19;5018613;28;20497;-85
2021/05/24 03:09:31;;;;;;;4.32;1.55;;;;;;;3.89;100.00;98170.22;5018335;28;20492;-85
2021/05/24 03:12:34;;;;;;;1.75;1.15;;;;;;;3.88;100.00;98171.44;5018266;28;20062;-85
2021/05/24 03:15:38;;;;;;;6.82;1.92;;;;;;;3.84;100.00;98166.13;5017585;28;20060;-84
2021/05/24 03:18:42;;;;;;;2.63;2.33;;;;;;;3.79;100.00;98164.00;5018350;28;20052;-84
2021/05/24 03:21:46;;;;;;;3.83;1.65;;;;;;;3.75;100.00;98168.16;5029696;28;20497;-84
2021/05/24 03:24:52;;;;;;;8.40;1.90;;;;;;;3.71;100.00;98168.38;5020337;28;20044;-85
2021/05/24 03:27:56;;;;;;;1.00;1.00;;;;;;;3.65;100.00;98172.22;5032409;28;20061;-84
2021/05/24 03:31:00;;;;;;;1.70;1.60;;;;;;;3.62;100.00;98175.91;5016708;28;20099;-85
2021/05/24 03:34:04;;;;;;;3.05;2.08;;;;;;;3.55;100.00;98176.28;5016317;28;20500;-84
2021/05/24 03:37:08;;;;;;;1.45;1.45;;;;;;;3.49;100.00;98178.13;5007763;28;20068;-85
2021/05/24 03:40:13;;;;;;;1.80;1.30;;;;;;;3.45;100.00;98188.56;5017668;28;20041;-84
2021/05/24 03:43:17;;;;;;;0.95;0.95;;;;;;;3.39;100.00;98191.22;5027888;28;20044;-85
2021/05/24 03:46:20;;;;;;;0.85;0.85;;;;;;;3.34;100.00;98191.06;5015682;28;20501;-85
2021/05/24 03:49:24;;;;;;;4.63;1.42;;;;;;;3.29;100.00;98199.97;5028913;28;20052;-85
2021/05/24 03:52:28;;;;;;;2.10;1.75;;;;;;;3.22;100.00;98192.06;5017337;28;20040;-86
2021/05/24 03:55:32;;;;;;;0.98;0.98;;;;;;;3.15;100.00;98203.41;5028982;28;20569;-85
2021/05/24 03:58:36;;;;;;;1.05;1.05;;;;;;;3.08;100.00;98199.78;5027382;28;20048;-85
2021/05/24 04:01:42;;;;;;;1.00;1.00;;;;;;;3.05;100.00;98208.94;5016052;28;20041;-86
2021/05/24 04:04:51;;;;;;;1.05;1.05;;;;;;;3.06;100.00;98204.97;5032284;28;20037;-85
2021/05/24 04:07:57;;;;;;;0.93;0.93;;;;;;;3.08;100.00;98210.00;5029697;28;20056;-86
2021/05/24 04:11:03;;;;;;;2.50;1.63;;;;;;;3.07;100.00;98203.00;5030849;28;20044;-84
2021/05/24 04:14:07;;;;;;;1.13;1.13;;;;;;;3.01;100.00;98204.84;5024323;28;20052;-84
2021/05/24 04:17:14;;;;;;;1.23;1.23;;;;;;;2.96;100.00;98198.00;5015236;28;20520;-85
2021/05/24 04:20:18;;;;;;;1.10;1.10;;;;;;;2.98;100.00;98206.53;5027952;28;20053;-84
2021/05/24 04:23:22;;;;;;;0.93;0.93;;;;;;;3.01;100.00;98216.59;5017216;28;20052;-84
2021/05/24 04:26:27;;;;;;;0.98;0.98;;;;;;;3.11;100.00;98222.06;5016543;28;20040;-85
2021/05/24 04:29:31;;;;;;;0.60;0.57;;;;;;;3.20;100.00;98222.03;5018548;28;20049;-84
2021/05/24 04:32:36;;;;;;;1.75;1.40;;;;;;;3.36;100.00;98229.88;5020864;28;20394;-84
2021/05/24 04:35:40;;;;;;;1.55;1.30;;;;;;;3.50;100.00;98221.72;5032640;28;20048;-84
2021/05/24 04:38:44;;;;;;;1.05;0.93;;;;;;;3.68;100.00;98229.09;5021063;28;20052;-83
2021/05/24 04:41:47;;;;;;;2.60;1.30;;;;;;;3.93;100.00;98227.84;5018889;28;20044;-84
2021/05/24 04:44:51;;;;;;;19.65;1.40;;;;;;;4.10;100.00;98237.19;5031534;28;20048;-84
2021/05/24 04:47:54;;;;;;;0.93;0.93;;;;;;;4.22;100.00;98244.47;5032093;28;20044;-82
2021/05/24 04:51:02;;;;;;;1.75;1.10;;;;;;;4.16;100.00;98252.59;5017912;28;20037;-82
2021/05/24 04:54:06;;;;;;;1.20;1.20;;;;;;;4.14;100.00;98255.06;5030051;28;20044;-82
2021/05/24 04:57:11;;;;;;;1.30;1.20;;;;;;;4.11;100.00;98255.25;5019899;28;20045;-82
2021/05/24 05:00:15;;;;;;;1.60;1.13;;;;;;;4.04;100.00;98253.63;5019923;28;20036;-82
2021/05/24 05:03:21;;;;;;;0.80;0.80;;;;;;;3.97;100.00;98267.75;5032146;28;20378;-82
2021/05/24 05:06:25;;;;;;;1.15;1.15;;;;;;;3.94;100.00;98267.94;5020908;28;20064;-86
2021/05/24 05:09:29;;;;;;;1.38;1.33;;;;;;;3.85;100.00;98261.25;5018392;28;20048;-86
2021/05/24 05:12:33;;;;;;;3.20;1.50;;;;;;;3.82;100.00;98267.69;5020384;28;20048;-86
2021/05/24 05:15:37;;;;;;;0.82;0.82;;;;;;;3.81;100.00;98271.66;5021007;28;20044;-85
2021/05/24 05:18:41;;;;;;;1.95;1.70;;;;;;;3.81;100.00;98270.94;5032179;28;20053;-85
2021/05/24 05:21:46;;;;;;;6.30;2.00;;;;;;;3.83;100.00;98269.22;5031793;28;20053;-85
2021/05/24 05:24:50;;;;;;;1.40;1.27;;;;;;;3.90;100.00;98272.88;5032241;28;20040;-86
2021/05/24 05:27:53;;;;;;;1.90;1.25;;;;;;;4.00;100.00;98275.09;5032367;28;20045;-86
2021/05/24 05:30:57;;;;;;;0.90;0.90;;;;;;;4.09;100.00;98272.28;5020464;28;20044;-86
2021/05/24 05:34:01;;;;;;;0.55;0.55;;;;;;;4.17;100.00;98273.44;5021429;28;20041;-86
2021/05/24 05:37:04;;;;;;;3.08;1.20;;;;;;;4.39;100.00;98276.63;5021338;28;20048;-86
2021/05/24 05:40:15;;;;;;;6.65;2.08;;;;;;;4.66;100.00;98283.13;5007829;28;20492;-86
2021/05/24 05:43:20;;;;;;;2.10;1.95;;;;;;;4.80;100.00;98283.13;5003981;28;20064;-87
2021/05/24 05:46:23;;;;;;;3.38;1.77;;;;;;;4.95;100.00;98288.66;5013457;28;20041;-86
2021/05/24 05:49:27;;;;;;;14.70;2.47;;;;;;;5.00;100.00;98282.47;5013283;28;20053;-87
2021/05/24 05:52:31;;;;;;;1.33;0.73;;;;;;;5.17;100.00;98273.25;5013955;28;20049;-87
2021/05/24 05:55:34;;;;;;;7.47;1.42;;;;;;;5.33;100.00;98283.00;5013194;28;20493;-87
2021/05/24 05:58:37;;;;;;;10.43;1.55;;;;;;;5.47;100.00;98290.50;5012922;28;20048;-86
2021/05/24 06:01:41;;;;;;;0.93;0.85;;;;;;;5.42;100.00;98293.94;5012939;28;20045;-86
2021/05/24 06:04:44;;;;;;;0.52;0.52;;;;;;;5.35;100.00;98299.84;5013049;28;20048;-84
2021/05/24 06:07:48;;;;;;;1.00;1.00;;;;;;;5.29;100.00;98307.28;5012907;28;20045;-86
2021/05/24 06:10:51;;;;;;;0.77;0.55;;;;;;;5.33;100.00;98296.78;5013113;28;20048;-86
2021/05/24 06:13:55;;;;;;;9.25;1.58;;;;;;;5.37;100.00;98300.88;5012933;28;20490;-86
2021/05/24 06:16:58;;;;;;;4.05;1.75;;;;;;;5.41;100.00;98297.94;5013299;28;20382;-86
2021/05/24 06:20:02;;;;;;;8.48;1.98;;;;;;;5.53;100.00;98298.88;5012267;28;20489;-86
2021/05/24 06:23:05;;;;;;;7.03;1.17;;;;;;;5.61;100.00;98295.22;5000980;28;20045;-84
2021/05/24 06:26:09;;;;;;;29.58;1.95;;;;;;;5.72;100.00;98295.38;5012456;28;20045;-85
2021/05/24 06:29:12;;;;;;;0.95;0.80;;;;;;;5.81;100.00;98297.25;5011109;28;20045;-84
2021/05/24 06:32:16;;;;;;;3.78;0.98;;;;;;;5.92;100.00;98295.47;5010036;28;20053;-85
2021/05/24 06:35:21;;;;;;;3.42;1.00;;;;;;;6.17;100.00;98312.63;4999926;28;20049;-86
2021/05/24 06:38:24;;;;;;;1.75;0.80;;;;;;;6.32;100.00;98307.78;5010326;28;20049;-85
2021/05/24 06:41:28;;;;;;;2.38;0.93;;;;;;;6.46;100.00;98304.94;4994519;28;20045;-85
2021/05/24 06:44:31;;;;;;;1.08;1.00;;;;;;;6.73;100.00;98312.03;4990537;28;20041;-86
2021/05/24 06:47:41;;;;;;;1.95;1.00;;;;;;;6.98;100.00;98308.50;4990692;28;20299;-83
2021/05/24 06:50:44;;;;;;;3.00;0.65;;;;;;;7.13;100.00;98308.38;4990285;28;20427;-84
2021/05/24 06:53:48;;;;;;;1.55;0.88;;;;;;;7.39;100.00;98303.56;4992995;28;20049;-84
2021/05/24 06:56:51;;;;;;;0.63;0.52;;;;;;;7.53;100.00;98308.22;5004511;28;20068;-84
2021/05/24 06:59:55;;;;;;;0.43;0.30;;;;;;;7.57;100.00;98308.75;4998997;28;20390;-79
2021/05/24 07:02:58;;;;;;;1.67;0.60;;;;;;;7.75;100.00;98307.63;5010498;28;20521;-83
2021/05/24 07:06:01;;;;;;;0.82;0.63;;;;;;;7.81;100.00;98297.31;5010498;28;20045;-83
2021/05/24 07:09:08;;;;;;;1.35;0.90;;;;;;;7.80;100.00;98298.56;5009984;28;20041;-83
2021/05/24 07:12:12;;;;;;;1.35;0.55;;;;;;;7.90;100.00;98302.66;5010409;28;20053;-84
2021/05/24 07:15:15;;;;;;;3.38;0.90;;;;;;;7.92;100.00;98305.69;4998053;28;20056;-84
2021/05/24 07:18:19;;;;;;;1.13;1.02;;;;;;;7.85;100.00;98308.94;5009697;28;20489;-85
2021/05/24 07:21:23;;;;;;;11.85;1.15;;;;;;;7.92;100.00;98311.25;5009900;28;20056;-86
2021/05/24 07:24:26;;;;;;;1.75;0.60;;;;;;;8.20;100.00;98321.25;5011034;28;20045;-83
2021/05/24 07:27:31;;;;;;;1.60;0.70;;;;;;;8.53;100.00;98326.22;5008454;28;20052;-81
2021/05/24 07:30:34;;;;;;;5.65;0.55;;;;;;;8.72;100.00;98330.06;5030695;28;20520;-83
2021/05/24 07:33:38;;;;;;;2.95;1.15;;;;;;;8.84;100.00;98322.50;5031305;28;20052;-82
2021/05/24 07:36:42;;;;;;;1.92;0.65;;;;;;;8.91;100.00;98320.00;5018936;28;20048;-81
2021/05/24 07:39:46;;;;;;;4.78;1.30;;;;;;;8.85;100.00;98324.78;5032265;28;20048;-84
2021/05/24 07:42:50;;;;;;;2.25;1.42;;;;;;;8.94;100.00;98327.31;5033670;28;20044;-85
2021/05/24 07:45:53;;;;;;;6.93;1.98;;;;;;;9.39;100.00;98327.41;5030171;28;20504;-84
2021/05/24 07:48:57;;;;;;;2.75;1.50;;;;;;;9.72;100.00;98322.56;5029884;28;20051;-83
2021/05/24 07:52:00;;;;;;;1.00;0.88;;;;;;;10.01;100.00;98321.28;5000461;28;20069;-84
2021/05/24 07:55:04;;;;;;;2.03;1.05;;;;;;;10.31;100.00;98321.50;5009936;28;20049;-82
2021/05/24 07:58:08;;;;;;;2.20;1.48;;;;;;;10.52;100.00;98331.78;5009825;28;20049;-84
2021/05/24 08:01:11;;;;;;;6.40;1.02;;;;;;;10.57;100.00;98333.78;5016167;28;20064;-84
2021/05/24 08:04:15;;;;;;;2.63;0.68;;;;;;;10.53;100.00;98326.97;5029969;28;20044;-83
2021/05/24 08:07:19;;;;;;;4.97;0.85;;;;;;;10.61;100.00;98328.69;5030042;28;20052;-81
2021/05/24 08:10:23;;;;;;;0.75;0.70;;;;;;;11.03;100.00;98323.94;5029777;28;20045;-84
2021/05/24 08:13:28;;;;;;;4.65;0.73;;;;;;;11.23;100.00;98320.75;5029476;28;20049;-85
2021/05/24 08:16:32;;;;;;;1.75;0.90;;;;;;;10.97;100.00;98326.00;4990696;28;20057;-84
2021/05/24 08:19:37;;;;;;;1.13;0.80;;;;;;;10.95;100.00;98322.97;5015241;28;20490;-84
2021/05/24 08:22:41;;;;;;;5.30;1.13;;;;;;;11.26;100.00;98336.47;5006957;28;20041;-84
2021/05/24 08:25:44;;;;;;;0.88;0.52;;;;;;;11.38;100.00;98327.50;5018021;28;20053;-84
2021/05/24 08:28:56;;;;;;;1.65;0.73;;;;;;;11.39;100.00;98328.25;5021914;28;20421;-85
2021/05/24 08:31:59;;;;;;;0.82;0.30;;;;;;;11.39;100.00;98319.91;5027613;28;20044;-85
2021/05/24 08:35:16;;;;;;;0.57;0.38;;;;;;;11.52;100.00;98319.28;5000091;28;20041;-87
2021/05/24 08:38:19;;;;;;;1.08;0.68;;;;;;;11.77;100.00;98299.31;5009424;28;20045;-85
2021/05/24 08:41:23;;;;;;;1.48;0.25;;;;;;;11.90;100.00;98304.25;5009873;28;20506;-86
2021/05/24 08:44:27;;;;;;;1.77;0.50;;;;;;;11.66;100.00;98302.19;5010504;28;20422;-85
2021/05/24 08:47:31;;;;;;;0.93;0.40;;;;;;;11.40;100.00;98305.44;4997672;28;20056;-86
2021/05/24 08:50:35;;;;;;;3.35;0.82;;;;;;;11.09;100.00;98310.72;5009128;28;20061;-86
2021/05/24 08:53:39;;;;;;;0.55;0.20;;;;;;;11.10;100.00;98312.25;4998146;28;20073;-87
2021/05/24 08:56:42;;;;;;;0.68;0.40;;;;;;;11.05;100.00;98304.66;5009781;28;20053;-84
2021/05/24 08:59:46;;;;;;;2.67;0.60;;;;;;;11.20;100.00;98305.84;4998222;28;20048;-86
2021/05/24 09:02:53;;;;;;;0.95;0.57;;;;;;;11.32;100.00;98304.50;5020415;28;20068;-88
2021/05/24 09:06:01;;;;;;;2.80;0.75;;;;;;;11.66;100.00;98307.00;5000032;28;20064;-89
2021/05/24 09:09:23;;;;;;;3.25;0.43;;;;;;;11.92;100.00;98308.06;5015694;28;20049;-86
2021/05/24 09:12:35;;;;;;;3.33;0.50;;;;;;;12.06;100.00;98303.34;5013678;28;20053;-87
2021/05/24 09:15:41;;;;;;;1.58;1.17;;;;;;;11.98;100.00;98305.94;5023713;28;20413;-86
2021/05/24 09:23:28;;;;;;;1.10;0.20;;;;;;;12.01;100.00;98313.28;5038599;28;20513;-88
2021/05/24 09:26:35;;;;;;;1.23;0.75;;;;;;;12.13;100.00;98308.34;5028202;28;20044;-88
2021/05/24 09:29:44;;;;;;;6.70;0.70;;;;;;;12.16;100.00;98305.28;5026769;28;20056;-86
2021/05/24 09:32:48;;;;;;;2.50;0.50;;;;;;;12.31;100.00;98310.44;5038857;28;20052;-89
2021/05/24 09:35:52;;;;;;;2.92;0.38;;;;;;;12.37;100.00;98301.97;5025988;28;20052;-88
2021/05/24 09:39:05;;;;;;;1.75;0.30;;;;;;;12.42;100.00;98306.75;5024882;28;20045;-90
2021/05/24 09:42:13;;;;;;;0.82;0.20;;;;;;;12.43;100.00;98305.47;5024169;28;20044;-88
2021/05/24 09:45:18;;;;;;;2.33;0.57;;;;;;;12.47;100.00;98311.50;5025487;28;20053;-88
2021/05/24 09:48:31;;;;;;;3.10;0.68;;;;;;;12.44;100.00;98318.13;5024198;28;20064;-90
2021/05/24 09:51:38;;;;;;;0.30;0.20;;;;;;;12.44;100.00;98307.72;5024396;28;20052;-88
2021/05/24 09:54:42;;;;;;;0.30;0.15;;;;;;;12.56;100.00;98305.56;5024146;28;20060;-88
2021/05/24 10:02:26;;;;;;;9.75;0.43;;;;;;;12.51;100.00;98304.34;5033942;28;20049;-89
2021/05/24 10:05:48;;;;;;;9.82;0.68;;;;;;;12.43;100.00;98308.28;5023740;28;20040;-88
2021/05/24 10:13:19;;;;;;;0.38;0.20;;;;;;;12.47;100.00;98312.28;5035447;28;20040;-88
2021/05/24 10:20:39;;;;;;;0.73;0.40;;;;;;;12.76;100.00;98305.03;5035237;28;20382;-89
2021/05/24 10:23:42;;;;;;;0.50;0.25;;;;;;;12.95;100.00;98303.75;5022714;28;20052;-88
2021/05/24 10:26:48;;;;;;;0.30;0.25;;;;;;;13.44;100.00;98307.13;5020851;28;20052;-86
2021/05/24 10:29:51;;;;;;;1.20;0.30;;;;;;;13.75;100.00;98310.44;5021890;28;20049;-87
2021/05/24 10:33:01;;;;;;;1.23;0.20;;;;;;;13.73;100.00;98315.84;5023183;28;20048;-87
2021/05/24 10:36:18;;;;;;;0.98;0.63;;;;;;;13.51;100.00;98312.09;5023183;28;20053;-89
2021/05/24 10:39:24;;;;;;;0.75;0.25;;;;;;;13.34;100.00;98314.41;5022742;28;20044;-85
2021/05/24 10:42:40;;;;;;;0.68;0.10;;;;;;;13.10;100.00;98311.72;5022746;28;20043;-88
2021/05/24 10:45:45;;;;;;;2.55;0.35;;;;;;;12.85;100.00;98318.63;5022650;28;20048;-87
2021/05/24 10:48:54;;;;;;;1.00;0.20;;;;;;;12.59;100.00;98324.06;5034683;28;20048;-86
2021/05/24 10:52:09;;;;;;;2.55;0.22;;;;;;;12.17;100.00;98331.16;5034670;28;20049;-88
2021/05/24 10:55:25;;;;;;;8.57;0.68;;;;;;;11.77;100.00;98330.00;5022543;28;20048;-88
2021/05/24 11:21:55;;;;;;;0.50;0.20;;;;;;;9.98;100.00;98364.03;5033705;28;20052;-85
2021/05/24 11:28:52;;;;;;;0.65;0.65;;;;;;;9.91;100.00;98384.00;5026278;28;20045;-86
2021/05/24 11:31:56;;;;;;;0.52;0.40;;;;;;;9.85;100.00;98389.53;5021802;28;20057;-86
2021/05/24 11:35:27;;;;;;;0.20;0.20;;;;;;;9.70;100.00;98391.09;5021793;28;20497;-86
2021/05/24 11:38:30;;;;;;;5.40;0.20;;;;;;;9.67;100.00;98398.41;5033568;28;20044;-86
2021/05/24 11:41:35;;;;;;;7.45;1.00;;;;;;;9.74;100.00;98397.16;5021355;28;20041;-84
2021/05/24 11:44:48;;;;;;;0.63;0.52;;;;;;;9.87;100.00;98408.53;5033790;28;20044;-85
2021/05/24 11:47:59;;;;;;;0.20;0.20;;;;;;;9.96;100.00;98402.72;5021018;28;20044;-81
2021/05/24 11:51:04;;;;;;;3.08;0.68;;;;;;;9.95;100.00;98401.19;5032754;28;20052;-81
2021/05/24 11:54:19;;;;;;;0.30;0.30;;;;;;;9.90;100.00;98411.03;5032692;28;20060;-82
2021/05/24 11:57:25;;;;;;;0.17;0.17;;;;;;;9.85;100.00;98409.00;5032574;28;20056;-81
2021/05/24 12:00:30;;;;;;;1.73;0.57;;;;;;;9.89;100.00;98408.78;5032563;28;20485;-82
2021/05/24 12:03:34;;;;;;;12.48;0.95;;;;;;;9.92;100.00;98419.63;5032625;28;20048;-80
2021/05/24 12:06:46;;;;;;;0.30;0.30;;;;;;;9.96;100.00;98419.41;5020517;28;20048;-83
2021/05/24 12:09:54;;;;;;;0.55;0.28;;;;;;;10.01;100.00;98418.63;5020539;28;20048;-81
2021/05/24 12:12:58;;;;;;;2.22;0.40;;;;;;;9.97;100.00;98426.47;5020682;28;20049;-81
2021/05/24 12:16:03;;;;;;;0.90;0.32;;;;;;;9.95;100.00;98428.97;5032528;28;20156;-82
2021/05/24 12:19:06;;;;;;;3.38;0.32;;;;;;;9.88;100.00;98430.25;5032438;28;20056;-82
2021/05/24 12:22:13;;;;;;;3.35;0.30;;;;;;;9.85;100.00;98424.94;5032708;28;20040;-82
2021/05/24 12:25:17;;;;;;;0.40;0.20;;;;;;;9.86;100.00;98427.22;5032474;28;20045;-82
2021/05/24 12:28:25;;;;;;;8.20;0.20;;;;;;;9.80;100.00;98439.59;5032196;28;20057;-81
2021/05/24 12:31:31;;;;;;;2.05;0.35;;;;;;;9.79;100.00;98436.06;5020778;28;20064;-82
2021/05/24 12:34:41;;;;;;;0.25;0.25;;;;;;;9.76;100.00;98439.09;5034395;28;20049;-84
2021/05/24 12:37:55;;;;;;;2.90;0.20;;;;;;;9.73;100.00;98440.09;5032014;28;20056;-83
2021/05/24 12:41:04;;;;;;;0.55;0.50;;;;;;;9.82;100.00;98439.84;5032595;28;20489;-80
2021/05/24 12:44:08;;;;;;;1.08;0.63;;;;;;;10.00;100.00;98436.59;5031009;28;20496;-84
2021/05/24 12:47:21;;;;;;;2.28;0.20;;;;;;;10.16;100.00;98448.97;5030822;28;20044;-82
2021/05/24 12:50:28;;;;;;;0.50;0.20;;;;;;;10.32;100.00;98443.41;5035752;28;20064;-82
2021/05/24 12:53:32;;;;;;;0.38;0.38;;;;;;;10.47;100.00;98446.66;5024226;28;20061;-83
2021/05/24 12:56:42;;;;;;;0.20;0.13;;;;;;;10.75;100.00;98443.81;5024004;28;20516;-80
2021/05/24 12:59:54;;;;;;;0.75;0.32;;;;;;;11.12;100.00;98449.75;5023912;28;20389;-84
2021/05/24 13:02:58;;;;;;;0.55;0.47;;;;;;;11.32;100.00;98443.09;5025346;28;20053;-80
2021/05/24 13:06:06;;;;;;;0.47;0.17;;;;;;;11.54;100.00;98448.53;5036703;28;20044;-79
2021/05/24 13:09:20;;;;;;;0.20;0.20;;;;;;;11.83;100.00;98444.28;5037312;28;20048;-80
2021/05/24 13:12:25;;;;;;;0.65;0.40;;;;;;;12.35;100.00;98452.50;5036940;28;20049;-89
2021/05/24 13:15:35;;;;;;;0.73;0.30;;;;;;;12.69;100.00;98450.91;5023860;28;20049;-80
2021/05/24 13:29:24;;;;;;;0.65;0.30;;;;;;;12.97;100.00;98473.72;5035204;28;20060;-80
2021/05/24 13:31:59;;;;;;;0.20;0.13;;;;;;;12.79;100.00;98474.41;5035929;28;20072;-82
2021/05/24 13:35:20;;;;;;;1.30;0.10;;;;;;;12.62;100.00;98485.75;5022915;28;20044;-82
2021/05/24 13:38:24;;;;;;;0.55;0.30;;;;;;;12.41;100.00;98481.13;5022885;28;20544;-82
2021/05/24 13:41:29;;;;;;;0.10;0.10;;;;;;;12.16;100.00;98489.47;5035218;28;20481;-81
2021/05/24 13:44:44;;;;;;;2.58;0.40;;;;;;;11.82;100.00;98496.56;5022779;28;20045;-81
2021/05/24 13:47:53;;;;;;;9.20;0.50;;;;;;;11.63;100.00;98498.41;5022844;28;20481;-82
2021/05/24 13:50:57;;;;;;;0.20;0.08;;;;;;;11.49;100.00;98499.50;5023128;28;20052;-81
2021/05/24 13:54:01;;;;;;;0.10;0.10;;;;;;;11.48;100.00;98505.59;5011814;28;20386;-81
2021/05/24 13:57:07;;;;;;;1.30;0.45;;;;;;;11.39;100.00;98506.66;5035039;28;20378;-83
2021/05/24 14:00:12;;;;;;;0.32;0.13;;;;;;;11.38;100.00;98510.69;5034957;28;20053;-83
2021/05/24 14:03:16;;;;;;;1.52;0.32;;;;;;;11.36;100.00;98510.47;5035462;28;20045;-81
2021/05/24 14:06:22;;;;;;;0.85;0.22;;;;;;;11.28;100.00;98518.59;5022889;28;20052;-84
2021/05/24 14:09:26;;;;;;;0.65;0.35;;;;;;;11.14;100.00;98527.25;5035632;28;20064;-81
2021/05/24 14:12:29;;;;;;;2.55;0.52;;;;;;;10.98;100.00;98526.03;5034873;28;20109;-82
2021/05/24 14:15:33;;;;;;;0.25;0.25;;;;;;;10.89;100.00;98528.34;5014454;28;20049;-82
2021/05/24 14:18:36;;;;;;;0.32;0.30;;;;;;;10.83;100.00;98527.59;5003065;28;20410;-82
2021/05/24 14:21:40;;;;;;;1.38;0.63;;;;;;;10.75;100.00;98532.16;5003737;28;20053;-82
2021/05/24 14:24:43;;;;;;;0.57;0.10;;;;;;;10.72;100.00;98539.50;5015256;28;20073;-82
2021/05/24 14:27:47;;;;;;;1.02;0.85;;;;;;;10.72;100.00;98544.31;5016442;28;20053;-81
2021/05/24 14:30:56;;;;;;;1.90;0.20;;;;;;;10.79;100.00;98549.34;5015129;28;20056;-82
2021/05/24 14:34:00;;;;;;;0.10;0.10;;;;;;;10.82;100.00;98548.34;5014167;28;20053;-83
2021/05/24 14:41:49;;;;;;;0.10;0.10;;;;;;;10.58;100.00;98563.56;4993010;28;20061;-80
2021/05/24 14:45:03;;;;;;;0.45;0.28;;;;;;;10.37;100.00;98570.63;4994360;28;20049;-81
2021/05/24 14:52:56;;;;;;;0.10;0.10;;;;;;;9.57;100.00;98588.88;5012437;28;20061;-78
2021/05/24 15:00:52;;;;;;;0.73;0.35;;;;;;;8.98;100.00;98599.19;5035487;28;20052;-80
2021/05/24 15:03:55;;;;;;;0.20;0.20;;;;;;;8.87;100.00;98605.44;5034978;28;20040;-81
2021/05/24 15:06:59;;;;;;;0.13;0.13;;;;;;;8.74;100.00;98607.09;5034242;28;20040;-81
2021/05/24 15:10:05;;;;;;;0.38;0.30;;;;;;;8.67;100.00;98613.09;5022582;28;20040;-80
2021/05/24 15:13:10;;;;;;;0.73;0.20;;;;;;;8.62;100.00;98617.34;5034577;28;20056;-80
2021/05/24 15:16:27;;;;;;;;;;;;;;;;;;;;;
2021/05/24 15:19:33;;;;;;;0.30;0.30;;;;;;;8.51;100.00;98616.50;5034586;28;20048;-80
2021/05/24 15:27:24;;;;;;;3.53;0.47;;;;;;;8.43;100.00;98626.50;5037052;28;20488;-80
2021/05/24 15:30:27;;;;;;;1.52;0.30;;;;;;;8.44;100.00;98628.81;5035537;28;20386;-83
2021/05/24 15:33:32;;;;;;;3.50;0.25;;;;;;;8.43;100.00;98624.50;5022720;28;20044;-80
2021/05/24 15:36:36;;;;;;;0.10;0.10;;;;;;;8.43;100.00;98632.81;5021575;28;20048;-83
2021/05/24 15:39:40;;;;;;;0.10;0.10;;;;;;;8.43;100.00;98638.34;5033738;28;20044;-80
2021/05/24 15:42:45;;;;;;;0.90;0.40;;;;;;;8.39;100.00;98637.81;5033193;28;20060;-82
2021/05/24 15:45:48;;;;;;;8.10;0.35;;;;;;;8.37;100.00;98640.31;5034241;28;20056;-86